Terminal Aerodrome Forecast
Issued by NWS

Home | Current Version | Previous Version | Text Only | Print | Product List | Glossary On
Versions: 1 2 3 4 5 6 7 8 9 10 11 12 13 14 15 16
000
FTUS43 KOAX 232356
TAFCDR
TAF
KCDR 232356Z 2400/2424 10010KT 6SM -SHRA BR SCT020 OVC035
      TEMPO 2401/2405 2SM -SHRA BR OVC020
     FM240600 10008KT 4SM BR OVC007
     FM241000 08008KT 2SM BR OVC003
     FM241500 08008KT 4SM BR OVC007
     FM241800 12010KT P6SM VCSH BKN025=

USA.gov is the U.S. government's official web portal to all federal, state and local government web resources and services.